createdAt,value
2022-12-20T00:00:01.260Z,21.98
2022-12-20T00:01:07.177Z,23.35
2022-12-20T00:02:08.994Z,21.60
2022-12-20T00:03:12.033Z,22.67
2022-12-20T00:04:13.582Z,20.92
2022-12-20T00:05:15.199Z,20.85
2022-12-20T00:06:17.263Z,18.60
2022-12-20T00:07:24.702Z,18.95
2022-12-20T00:08:26.227Z,18.58
2022-12-20T00:09:39.679Z,18.90
2022-12-20T00:10:42.914Z,17.35
2022-12-20T00:11:44.475Z,17.88
2022-12-20T00:12:46.010Z,19.45
2022-12-20T00:13:47.718Z,18.88
2022-12-20T00:14:49.275Z,19.05
2022-12-20T00:15:50.854Z,17.48
2022-12-20T00:16:52.413Z,18.65
2022-12-20T00:17:54.010Z,20.80
2022-12-20T00:18:58.889Z,19.65
2022-12-20T00:20:00.519Z,19.58
2022-12-20T00:21:03.402Z,21.08
2022-12-20T00:22:04.929Z,21.15
2022-12-20T00:23:06.534Z,22.50
2022-12-20T00:24:08.388Z,20.95
2022-12-20T00:25:10.058Z,20.08
2022-12-20T00:26:14.280Z,19.83
2022-12-20T00:27:15.863Z,19.63
2022-12-20T00:28:17.437Z,20.10
2022-12-20T00:29:18.998Z,19.77
2022-12-20T00:30:20.589Z,18.60
2022-12-20T00:31:23.471Z,19.63
2022-12-20T00:32:25.080Z,18.50
2022-12-20T00:33:26.698Z,19.17
2022-12-20T00:34:29.587Z,19.27
2022-12-20T00:35:31.146Z,17.88
2022-12-20T00:36:33.382Z,19.08
2022-12-20T00:37:34.968Z,18.35
2022-12-20T00:38:36.898Z,18.38
2022-12-20T00:39:38.626Z,18.23
2022-12-20T00:40:40.208Z,18.25
2022-12-20T00:41:41.965Z,17.55
2022-12-20T00:42:43.499Z,18.33
2022-12-20T00:43:45.074Z,17.52
2022-12-20T00:44:46.671Z,17.35
2022-12-20T00:45:48.201Z,17.73
2022-12-20T00:46:49.798Z,18.45
2022-12-20T00:47:51.397Z,17.85
2022-12-20T00:48:53.676Z,18.42
2022-12-20T00:49:56.569Z,19.50
2022-12-20T00:50:59.152Z,19.75
2022-12-20T00:52:00.700Z,19.42
2022-12-20T00:53:02.258Z,19.48
2022-12-20T00:54:03.994Z,17.20
2022-12-20T00:55:05.679Z,19.42
2022-12-20T00:56:08.790Z,17.95
2022-12-20T00:57:10.324Z,18.60
2022-12-20T00:58:12.448Z,18.05
2022-12-20T00:59:13.998Z,18.95
2022-12-20T01:00:16.188Z,18.17
2022-12-20T01:01:22.789Z,17.58
2022-12-20T01:02:24.617Z,17.95
2022-12-20T01:03:27.305Z,16.55
2022-12-20T01:04:28.958Z,17.58
2022-12-20T01:05:32.132Z,16.50
2022-12-20T01:06:34.359Z,16.83
2022-12-20T01:07:35.901Z,15.55
2022-12-20T01:08:37.616Z,16.30
2022-12-20T01:09:39.555Z,16.52
2022-12-20T01:10:41.043Z,15.65
2022-12-20T01:11:42.789Z,15.93
2022-12-20T01:12:44.734Z,16.25
2022-12-20T01:13:48.234Z,16.33
2022-12-20T01:14:49.855Z,16.60
2022-12-20T01:15:51.352Z,16.38
2022-12-20T01:16:52.926Z,16.42
2022-12-20T01:17:54.485Z,16.45
2022-12-20T01:18:56.333Z,17.80
2022-12-20T01:19:58.067Z,17.75
2022-12-20T01:21:06.179Z,19.13
2022-12-20T01:22:07.733Z,21.30
2022-12-20T01:23:09.278Z,22.63
2022-12-20T01:24:11.037Z,23.25
2022-12-20T01:25:12.573Z,23.75
2022-12-20T01:26:16.780Z,23.23
2022-12-20T01:27:18.320Z,23.55
2022-12-20T01:28:19.830Z,21.67
2022-12-20T01:29:21.403Z,20.92
2022-12-20T01:30:22.917Z,23.13
2022-12-20T01:31:25.261Z,21.77
2022-12-20T01:32:26.875Z,20.73
2022-12-20T01:33:28.408Z,24.02
2022-12-20T01:34:29.898Z,28.42
2022-12-20T01:35:31.391Z,28.83
2022-12-20T01:36:36.457Z,27.15
2022-12-20T01:37:38.586Z,23.27
2022-12-20T01:38:40.251Z,22.73
2022-12-20T01:39:41.804Z,21.70
2022-12-20T01:40:43.351Z,21.05
2022-12-20T01:41:46.254Z,21.00
2022-12-20T01:42:47.834Z,20.10
2022-12-20T01:43:51.504Z,21.70
2022-12-20T01:44:58.752Z,22.48
2022-12-20T01:46:00.334Z,23.77
2022-12-20T01:47:01.982Z,23.10
2022-12-20T01:48:03.750Z,24.67
2022-12-20T01:49:09.909Z,25.85
2022-12-20T01:50:11.559Z,24.02
2022-12-20T01:51:13.671Z,23.23
2022-12-20T01:52:20.441Z,22.85
2022-12-20T01:53:24.195Z,22.77
2022-12-20T01:54:30.622Z,21.00
2022-12-20T01:55:33.432Z,18.00
2022-12-20T01:56:36.563Z,14.60
2022-12-20T01:57:44.218Z,14.40
2022-12-20T01:58:48.008Z,15.43
2022-12-20T01:59:52.074Z,15.27
2022-12-20T02:00:53.686Z,14.93
2022-12-20T02:01:58.051Z,15.13
2022-12-20T02:03:03.996Z,15.65
2022-12-20T02:04:05.641Z,15.98
2022-12-20T02:05:07.935Z,16.45
2022-12-20T02:06:17.657Z,16.10
2022-12-20T02:07:25.344Z,17.65
2022-12-20T02:08:26.897Z,15.95
2022-12-20T02:09:29.498Z,17.48
2022-12-20T02:10:41.240Z,16.55
2022-12-20T02:12:04.985Z,15.60
2022-12-20T02:13:18.791Z,16.02
2022-12-20T02:14:32.148Z,16.45
2022-12-20T02:15:46.281Z,16.02
2022-12-20T02:16:53.607Z,14.10
2022-12-20T02:18:08.029Z,14.50
2022-12-20T02:19:28.731Z,15.05
2022-12-20T02:20:59.142Z,13.98
2022-12-20T02:22:14.074Z,14.50
2022-12-20T02:23:46.078Z,14.70
2022-12-20T02:26:12.401Z,12.82
2022-12-20T02:27:49.785Z,13.35
2022-12-20T02:29:10.220Z,13.65
2022-12-20T02:30:16.028Z,13.52
2022-12-20T02:31:22.892Z,12.95
2022-12-20T02:32:28.672Z,11.80
2022-12-20T02:33:30.231Z,12.43
2022-12-20T02:34:33.664Z,14.25
2022-12-20T02:35:37.737Z,14.60
2022-12-20T02:36:39.268Z,14.93
2022-12-20T02:37:48.276Z,15.20
2022-12-20T02:38:50.499Z,14.63
2022-12-20T02:39:52.214Z,14.48
2022-12-20T02:40:58.908Z,14.73
2022-12-20T02:42:05.432Z,13.95
2022-12-20T02:43:10.339Z,14.30
2022-12-20T02:44:19.369Z,14.77
2022-12-20T02:45:26.503Z,13.95
2022-12-20T02:46:29.033Z,13.95
2022-12-20T02:47:34.420Z,13.32
2022-12-20T02:48:38.520Z,13.90
2022-12-20T02:49:42.627Z,14.02
2022-12-20T02:50:47.034Z,14.57
2022-12-20T02:51:51.956Z,13.43
2022-12-20T02:52:54.478Z,13.05
2022-12-20T02:53:57.202Z,14.13
2022-12-20T02:55:00.241Z,15.00
2022-12-20T02:56:10.270Z,13.20
2022-12-20T02:57:18.453Z,13.77
2022-12-20T02:58:26.652Z,14.32
2022-12-20T02:59:32.212Z,14.18
2022-12-20T03:00:42.440Z,13.50
2022-12-20T03:01:47.853Z,13.50
2022-12-20T03:02:51.330Z,13.32
2022-12-20T03:03:54.073Z,13.68
2022-12-20T03:04:58.669Z,12.73
2022-12-20T03:06:00.398Z,12.88
2022-12-20T03:07:05.293Z,12.93
2022-12-20T03:08:06.824Z,13.18
2022-12-20T03:09:08.339Z,13.27
2022-12-20T03:10:11.117Z,12.27
2022-12-20T03:11:13.060Z,12.35
2022-12-20T03:12:15.583Z,12.68
2022-12-20T03:13:17.418Z,13.32
2022-12-20T03:14:19.369Z,12.73
2022-12-20T03:15:20.933Z,13.25
2022-12-20T03:16:23.863Z,13.93
2022-12-20T03:17:25.467Z,13.70
2022-12-20T03:18:27.346Z,12.98
2022-12-20T03:19:29.261Z,13.95
2022-12-20T03:20:30.882Z,13.80
2022-12-20T03:21:32.411Z,13.88
2022-12-20T03:22:34.250Z,13.88
2022-12-20T03:23:35.742Z,13.30
2022-12-20T03:24:37.284Z,14.32
2022-12-20T03:25:38.824Z,13.82
2022-12-20T03:26:40.644Z,13.50
2022-12-20T03:27:42.182Z,13.35
2022-12-20T03:28:43.781Z,13.40
2022-12-20T03:29:45.365Z,13.07
2022-12-20T03:30:47.340Z,12.93
2022-12-20T03:31:50.412Z,12.40
2022-12-20T03:32:52.233Z,12.50
2022-12-20T03:33:53.849Z,14.05
2022-12-20T03:34:55.418Z,13.75
2022-12-20T03:35:56.960Z,14.10
2022-12-20T03:36:58.499Z,13.45
2022-12-20T03:38:00.027Z,13.77
2022-12-20T03:39:01.554Z,15.02
2022-12-20T03:40:03.978Z,14.68
2022-12-20T03:41:05.881Z,14.85
2022-12-20T03:42:07.657Z,14.95
2022-12-20T03:43:09.282Z,13.90
2022-12-20T03:44:10.829Z,13.93
2022-12-20T03:45:12.377Z,14.25
2022-12-20T03:46:14.657Z,14.25
2022-12-20T03:47:17.594Z,14.20
2022-12-20T03:48:19.156Z,14.25
2022-12-20T03:49:20.665Z,13.60
2022-12-20T03:50:22.168Z,14.10
2022-12-20T03:51:23.708Z,13.90
2022-12-20T03:52:25.244Z,14.38
2022-12-20T03:53:26.758Z,14.45
2022-12-20T03:54:28.300Z,14.45
2022-12-20T03:55:29.869Z,14.85
2022-12-20T03:56:31.425Z,13.73
2022-12-20T03:57:33.014Z,12.85
2022-12-20T03:58:34.558Z,13.35
2022-12-20T03:59:36.098Z,13.45
2022-12-20T04:00:37.622Z,13.63
2022-12-20T04:01:39.336Z,13.13
2022-12-20T04:02:42.564Z,13.60
2022-12-20T04:03:44.273Z,13.25
2022-12-20T04:04:45.844Z,13.25
2022-12-20T04:05:47.415Z,13.75
2022-12-20T04:06:49.116Z,14.05
2022-12-20T04:07:50.656Z,14.98
2022-12-20T04:08:52.166Z,14.52
2022-12-20T04:09:53.697Z,15.20
2022-12-20T04:10:55.206Z,16.65
2022-12-20T04:11:56.726Z,16.75
2022-12-20T04:12:58.277Z,18.33
2022-12-20T04:13:59.852Z,17.52
2022-12-20T04:15:01.417Z,18.88
2022-12-20T04:16:03.281Z,18.50
2022-12-20T04:17:04.998Z,17.60
2022-12-20T04:18:07.855Z,16.10
2022-12-20T04:19:09.481Z,16.13
2022-12-20T04:20:14.948Z,16.48
2022-12-20T04:21:22.279Z,15.25
2022-12-20T04:22:23.846Z,17.48
2022-12-20T04:23:25.368Z,15.20
2022-12-20T04:24:26.923Z,15.60
2022-12-20T04:25:28.496Z,16.48
2022-12-20T04:26:30.239Z,14.60
2022-12-20T04:27:31.750Z,14.57
2022-12-20T04:28:34.284Z,14.63
2022-12-20T04:29:35.807Z,15.63
2022-12-20T04:30:37.337Z,14.60
2022-12-20T04:31:38.909Z,15.73
2022-12-20T04:32:40.991Z,15.23
2022-12-20T04:33:44.961Z,14.25
2022-12-20T04:34:46.467Z,13.38
2022-12-20T04:35:48.100Z,13.73
2022-12-20T04:36:49.615Z,12.80
2022-12-20T04:37:51.137Z,14.65
2022-12-20T04:38:52.695Z,13.23
2022-12-20T04:39:54.204Z,12.70
2022-12-20T04:40:56.366Z,13.05
2022-12-20T04:41:57.873Z,14.02
2022-12-20T04:42:59.407Z,13.40
2022-12-20T04:44:01.014Z,12.77
2022-12-20T04:45:02.546Z,14.30
2022-12-20T04:46:04.134Z,13.40
2022-12-20T04:47:05.847Z,11.95
2022-12-20T04:48:36.926Z,13.43
2022-12-20T04:50:31.941Z,12.77
2022-12-20T04:51:33.792Z,12.57
2022-12-20T04:52:35.338Z,12.73
2022-12-20T04:53:36.830Z,12.57
2022-12-20T04:54:38.388Z,12.43
2022-12-20T04:55:40.620Z,12.00
2022-12-20T04:56:42.203Z,11.88
2022-12-20T04:57:43.763Z,12.27
2022-12-20T04:58:46.461Z,13.38
2022-12-20T04:59:48.007Z,11.77
2022-12-20T05:00:50.102Z,12.52
2022-12-20T05:01:51.694Z,12.55
2022-12-20T05:02:53.545Z,12.38
2022-12-20T05:03:55.546Z,12.18
2022-12-20T05:04:58.475Z,11.45
2022-12-20T05:06:00.030Z,11.88
2022-12-20T05:07:01.737Z,12.48
2022-12-20T05:08:03.460Z,11.15
2022-12-20T05:09:04.988Z,11.40
2022-12-20T05:10:15.746Z,12.18
2022-12-20T05:11:17.387Z,11.13
2022-12-20T05:12:18.957Z,12.07
2022-12-20T05:13:20.508Z,12.60
2022-12-20T05:14:22.034Z,11.43
2022-12-20T05:15:23.613Z,11.93
2022-12-20T05:16:26.277Z,12.27
2022-12-20T05:17:27.962Z,12.32
2022-12-20T05:18:29.734Z,11.70
2022-12-20T05:19:31.644Z,12.68
2022-12-20T05:20:34.786Z,12.75
2022-12-20T05:21:36.326Z,12.27
2022-12-20T05:22:37.990Z,13.68
2022-12-20T05:23:39.629Z,12.30
2022-12-20T05:24:41.176Z,13.65
2022-12-20T05:25:45.149Z,14.90
2022-12-20T05:26:46.752Z,23.95
2022-12-20T05:27:48.266Z,19.17
2022-12-20T05:28:49.793Z,14.48
2022-12-20T05:29:51.305Z,13.55
2022-12-20T05:30:52.867Z,12.40
2022-12-20T05:31:54.467Z,12.15
2022-12-20T05:32:56.046Z,12.35
2022-12-20T05:33:57.545Z,12.43
2022-12-20T05:34:59.038Z,11.90
2022-12-20T05:36:02.563Z,12.32
2022-12-20T05:37:04.270Z,11.80
2022-12-20T05:38:05.897Z,12.60
2022-12-20T05:39:07.591Z,12.30
2022-12-20T05:40:10.004Z,12.45
2022-12-20T05:41:11.681Z,12.75
2022-12-20T05:42:13.600Z,12.52
2022-12-20T05:43:15.428Z,12.73
2022-12-20T05:44:17.538Z,12.60
2022-12-20T05:45:19.101Z,12.85
2022-12-20T05:46:20.658Z,12.80
2022-12-20T05:47:22.235Z,12.25
2022-12-20T05:48:23.819Z,12.52
2022-12-20T05:49:25.456Z,12.43
2022-12-20T05:50:27.147Z,12.88
2022-12-20T05:51:30.138Z,12.68
2022-12-20T05:52:31.691Z,12.70
2022-12-20T05:53:33.302Z,20.25
2022-12-20T05:54:34.855Z,23.60
2022-12-20T05:55:36.395Z,18.55
2022-12-20T05:56:37.931Z,14.85
2022-12-20T05:57:39.544Z,12.60
2022-12-20T05:58:41.080Z,11.77
2022-12-20T05:59:42.653Z,12.02
2022-12-20T06:00:44.807Z,11.52
2022-12-20T06:01:46.449Z,11.85
2022-12-20T06:02:48.263Z,12.90
2022-12-20T06:03:50.046Z,11.90
2022-12-20T06:04:51.668Z,12.45
2022-12-20T06:05:53.238Z,13.75
2022-12-20T06:06:56.085Z,12.48
2022-12-20T06:07:58.635Z,13.25
2022-12-20T06:09:00.352Z,12.68
2022-12-20T06:10:02.163Z,12.68
2022-12-20T06:11:18.710Z,13.05
2022-12-20T06:12:20.425Z,14.25
2022-12-20T06:13:23.195Z,13.23
2022-12-20T06:14:25.214Z,14.75
2022-12-20T06:15:27.405Z,13.40
2022-12-20T06:16:28.961Z,14.63
2022-12-20T06:17:30.573Z,13.82
2022-12-20T06:18:32.061Z,16.70
2022-12-20T06:19:33.694Z,15.95
2022-12-20T06:20:35.611Z,14.82
2022-12-20T06:21:37.146Z,14.43
2022-12-20T06:22:40.201Z,14.52
2022-12-20T06:23:42.083Z,12.02
2022-12-20T06:24:48.164Z,10.98
2022-12-20T06:25:50.457Z,10.43
2022-12-20T06:26:51.984Z,10.82
2022-12-20T06:27:53.553Z,10.80
2022-12-20T06:28:55.069Z,14.13
2022-12-20T06:29:56.571Z,13.30
2022-12-20T06:30:58.592Z,13.25
2022-12-20T06:32:00.303Z,11.90
2022-12-20T06:33:01.898Z,10.45
2022-12-20T06:34:03.462Z,10.60
2022-12-20T06:35:06.047Z,10.05
2022-12-20T06:36:07.973Z,10.95
2022-12-20T06:37:10.040Z,10.68
2022-12-20T06:38:13.386Z,10.88
2022-12-20T06:39:15.260Z,10.80
2022-12-20T06:40:17.084Z,11.52
2022-12-20T06:41:19.400Z,11.70
2022-12-20T06:42:21.221Z,11.00
2022-12-20T06:43:22.888Z,11.32
2022-12-20T06:44:24.435Z,11.80
2022-12-20T06:45:26.014Z,11.98
2022-12-20T06:46:27.673Z,10.70
2022-12-20T06:47:29.273Z,11.77
2022-12-20T06:48:30.817Z,12.20
2022-12-20T06:49:32.415Z,12.00
2022-12-20T06:50:33.980Z,10.98
2022-12-20T06:51:35.564Z,12.10
2022-12-20T06:52:37.111Z,11.70
2022-12-20T06:53:39.945Z,11.50
2022-12-20T06:54:41.459Z,12.35
2022-12-20T06:55:43.757Z,10.65
2022-12-20T06:56:45.316Z,11.30
2022-12-20T06:57:46.870Z,12.73
2022-12-20T06:58:48.365Z,11.88
2022-12-20T06:59:49.884Z,11.38
2022-12-20T07:00:51.488Z,11.00
2022-12-20T07:01:53.216Z,11.48
2022-12-20T07:02:55.133Z,10.88
2022-12-20T07:03:56.846Z,9.75
2022-12-20T07:04:58.422Z,10.88
2022-12-20T07:05:59.959Z,9.80
2022-12-20T07:07:01.476Z,9.55
2022-12-20T07:08:03.323Z,10.23
2022-12-20T07:09:06.289Z,9.48
2022-12-20T07:10:08.876Z,9.60
2022-12-20T07:11:10.382Z,8.95
2022-12-20T07:12:13.192Z,8.57
2022-12-20T07:13:14.742Z,9.57
2022-12-20T07:14:16.244Z,9.18
2022-12-20T07:15:17.769Z,8.80
2022-12-20T07:16:19.320Z,9.30
2022-12-20T07:17:21.048Z,9.57
2022-12-20T07:18:22.537Z,8.82
2022-12-20T07:19:24.014Z,8.48
2022-12-20T07:20:27.554Z,9.13
2022-12-20T07:21:29.125Z,9.70
2022-12-20T07:22:30.686Z,9.43
2022-12-20T07:23:32.888Z,8.88
2022-12-20T07:24:36.182Z,8.52
2022-12-20T07:25:37.723Z,8.40
2022-12-20T07:26:39.323Z,8.82
2022-12-20T07:27:40.855Z,8.73
2022-12-20T07:28:43.414Z,8.35
2022-12-20T07:29:44.952Z,7.88
2022-12-20T07:30:46.522Z,8.13
2022-12-20T07:31:48.055Z,8.57
2022-12-20T07:32:49.718Z,8.55
2022-12-20T07:33:51.328Z,8.48
2022-12-20T07:34:52.920Z,8.68
2022-12-20T07:36:00.457Z,8.73
2022-12-20T07:37:01.986Z,7.95
2022-12-20T07:38:03.609Z,7.60
2022-12-20T07:39:05.320Z,7.85
2022-12-20T07:40:09.416Z,8.38
2022-12-20T07:41:13.959Z,8.20
2022-12-20T07:42:15.698Z,8.30
2022-12-20T07:43:17.240Z,8.75
2022-12-20T07:44:18.748Z,8.75
2022-12-20T07:45:20.288Z,8.20
2022-12-20T07:46:21.910Z,8.82
2022-12-20T07:47:23.589Z,8.02
2022-12-20T07:48:25.172Z,8.25
2022-12-20T07:49:26.774Z,8.55
2022-12-20T07:50:29.552Z,8.52
2022-12-20T07:51:34.841Z,7.75
2022-12-20T07:52:37.154Z,8.13
2022-12-20T07:53:42.976Z,8.10
2022-12-20T07:54:48.795Z,7.85
2022-12-20T07:55:52.921Z,8.40
2022-12-20T07:56:58.427Z,8.32
2022-12-20T07:58:04.620Z,7.82
2022-12-20T07:59:06.577Z,8.18
2022-12-20T08:00:09.875Z,8.27
2022-12-20T08:01:12.649Z,7.93
2022-12-20T08:02:18.200Z,7.90
2022-12-20T08:03:23.259Z,8.63
2022-12-20T08:04:28.337Z,8.38
2022-12-20T08:05:30.580Z,8.05
2022-12-20T08:06:33.634Z,8.30
2022-12-20T08:07:37.656Z,8.48
2022-12-20T08:08:46.354Z,8.05
2022-12-20T08:09:48.294Z,8.55
2022-12-20T08:10:51.394Z,8.48
2022-12-20T08:11:53.471Z,7.93
2022-12-20T08:12:55.487Z,7.95
2022-12-20T08:13:58.328Z,8.43
2022-12-20T08:15:00.321Z,7.32
2022-12-20T08:16:01.891Z,7.85
2022-12-20T08:17:03.493Z,7.60
2022-12-20T08:18:05.314Z,7.13
2022-12-20T08:19:06.899Z,8.38
2022-12-20T08:20:09.007Z,7.72
2022-12-20T08:21:10.534Z,7.47
2022-12-20T08:22:12.023Z,7.35
2022-12-20T08:23:13.538Z,7.60
2022-12-20T08:24:15.061Z,7.53
2022-12-20T08:25:16.691Z,8.15
2022-12-20T08:26:19.644Z,8.30
2022-12-20T08:27:21.146Z,7.80
2022-12-20T08:28:22.683Z,7.38
2022-12-20T08:29:24.217Z,7.45
2022-12-20T08:30:25.753Z,8.27
2022-12-20T08:31:27.346Z,7.90
2022-12-20T08:32:29.010Z,7.15
2022-12-20T08:33:30.721Z,8.15
2022-12-20T08:34:32.254Z,7.40
2022-12-20T08:35:42.895Z,8.23
2022-12-20T08:36:44.557Z,6.93
2022-12-20T08:37:46.109Z,7.35
2022-12-20T08:38:47.671Z,7.68
2022-12-20T08:39:49.189Z,7.38
2022-12-20T08:40:50.719Z,7.13
2022-12-20T08:41:53.550Z,7.00
2022-12-20T08:42:55.103Z,7.70
2022-12-20T08:43:56.653Z,7.32
2022-12-20T08:44:58.197Z,7.45
2022-12-20T08:46:00.168Z,7.10
2022-12-20T08:47:01.700Z,7.00
2022-12-20T08:48:03.545Z,7.22
2022-12-20T08:49:05.659Z,7.50
2022-12-20T08:50:08.103Z,6.95
2022-12-20T08:51:11.514Z,6.88
2022-12-20T08:52:13.126Z,6.53
2022-12-20T08:53:14.662Z,7.22
2022-12-20T08:54:16.174Z,7.18
2022-12-20T08:55:20.022Z,7.00
2022-12-20T08:56:24.150Z,6.97
2022-12-20T08:57:27.026Z,7.15
2022-12-20T08:58:28.569Z,6.70
2022-12-20T08:59:30.536Z,6.93
2022-12-20T09:00:32.049Z,6.78
2022-12-20T09:01:33.733Z,6.85
2022-12-20T09:02:35.465Z,6.90
2022-12-20T09:03:38.281Z,6.60
2022-12-20T09:04:39.962Z,7.28
2022-12-20T09:05:45.947Z,7.85
2022-12-20T09:06:48.007Z,6.75
2022-12-20T09:07:49.504Z,7.25
2022-12-20T09:08:51.980Z,6.55
2022-12-20T09:09:53.511Z,6.97
2022-12-20T09:11:16.123Z,6.95
2022-12-20T09:12:17.761Z,6.80
2022-12-20T09:13:20.632Z,6.35
2022-12-20T09:14:22.130Z,6.45
2022-12-20T09:15:23.760Z,6.70
2022-12-20T09:16:27.097Z,6.68
2022-12-20T09:17:28.664Z,6.82
2022-12-20T09:18:30.330Z,6.47
2022-12-20T09:19:32.027Z,6.80
2022-12-20T09:20:33.683Z,7.22
2022-12-20T09:21:35.316Z,6.97
2022-12-20T09:22:36.898Z,6.68
2022-12-20T09:23:38.705Z,6.22
2022-12-20T09:24:40.227Z,5.75
2022-12-20T09:25:41.725Z,6.57
2022-12-20T09:26:43.220Z,6.75
2022-12-20T09:27:47.269Z,6.13
2022-12-20T09:28:51.183Z,6.82
2022-12-20T09:29:52.663Z,6.90
2022-12-20T09:30:58.168Z,6.53
2022-12-20T09:31:59.756Z,6.15
2022-12-20T09:33:08.352Z,6.38
2022-12-20T09:34:12.302Z,5.50
2022-12-20T09:35:17.809Z,5.97
2022-12-20T09:36:24.323Z,6.60
2022-12-20T09:37:25.825Z,6.80
2022-12-20T09:38:28.439Z,6.80
2022-12-20T09:39:29.966Z,6.43
2022-12-20T09:40:31.953Z,6.60
2022-12-20T09:41:37.174Z,6.90
2022-12-20T09:42:38.742Z,6.63
2022-12-20T09:43:40.259Z,6.60
2022-12-20T09:44:43.385Z,6.57
2022-12-20T09:45:47.524Z,5.88
2022-12-20T09:46:54.553Z,6.40
2022-12-20T09:47:56.141Z,6.32
2022-12-20T09:48:58.061Z,5.88
2022-12-20T09:49:59.620Z,6.07
2022-12-20T09:51:12.057Z,5.88
2022-12-20T09:52:29.356Z,5.68
2022-12-20T09:53:40.402Z,5.65
2022-12-20T09:54:52.431Z,6.38
2022-12-20T09:55:58.911Z,6.05
2022-12-20T09:57:09.583Z,5.47
2022-12-20T09:58:28.731Z,5.75
2022-12-20T09:59:38.960Z,5.80
2022-12-20T10:00:51.898Z,5.43
2022-12-20T10:01:55.734Z,5.60
2022-12-20T10:03:08.216Z,5.50
2022-12-20T10:04:23.372Z,5.88
2022-12-20T10:05:40.510Z,5.53
2022-12-20T10:06:54.702Z,5.80
2022-12-20T10:08:05.234Z,5.43
2022-12-20T10:09:19.222Z,6.33
2022-12-20T10:10:36.890Z,5.82
2022-12-20T10:12:01.399Z,6.03
2022-12-20T10:13:16.921Z,6.53
2022-12-20T10:14:35.578Z,9.30
2022-12-20T10:15:42.853Z,7.35
2022-12-20T10:16:55.553Z,8.00
2022-12-20T10:18:28.501Z,8.00
2022-12-20T10:19:50.392Z,7.70
2022-12-20T10:20:59.335Z,7.22
2022-12-20T10:22:07.542Z,7.93
2022-12-20T10:23:15.075Z,9.90
2022-12-20T10:24:19.447Z,7.40
2022-12-20T10:25:23.126Z,7.20
2022-12-20T10:26:24.654Z,7.05
2022-12-20T10:27:26.409Z,7.72
2022-12-20T10:28:30.041Z,7.40
2022-12-20T10:29:31.556Z,6.95
2022-12-20T10:30:33.606Z,6.50
2022-12-20T10:31:35.310Z,6.78
2022-12-20T10:32:38.170Z,7.45
2022-12-20T10:33:40.480Z,7.28
2022-12-20T10:34:49.977Z,7.55
2022-12-20T10:35:51.581Z,7.60
2022-12-20T10:37:11.751Z,8.75
2022-12-20T10:38:14.983Z,10.77
2022-12-20T10:39:16.504Z,11.75
2022-12-20T10:40:46.353Z,9.25
2022-12-20T10:41:50.186Z,8.00
2022-12-20T10:42:51.730Z,7.65
2022-12-20T10:43:58.559Z,8.63
2022-12-20T10:45:00.536Z,8.35
2022-12-20T10:46:05.448Z,8.55
2022-12-20T10:47:24.665Z,8.80
2022-12-20T10:48:30.595Z,8.40
2022-12-20T10:49:34.037Z,8.77
2022-12-20T10:50:35.617Z,9.25
2022-12-20T10:51:37.155Z,8.85
2022-12-20T10:52:38.668Z,9.30
2022-12-20T10:53:51.667Z,8.30
2022-12-20T10:54:53.195Z,7.78
2022-12-20T10:56:07.933Z,7.70
2022-12-20T10:57:18.057Z,7.78
2022-12-20T10:58:31.771Z,7.93
2022-12-20T10:59:36.589Z,8.00
2022-12-20T11:00:38.430Z,7.80
2022-12-20T11:01:44.822Z,7.85
2022-12-20T11:03:02.765Z,8.27
2022-12-20T11:04:07.881Z,8.05
2022-12-20T11:05:23.786Z,7.40
2022-12-20T11:06:28.468Z,8.77
2022-12-20T11:07:33.764Z,8.50
2022-12-20T11:08:41.251Z,8.25
2022-12-20T11:09:54.612Z,8.77
2022-12-20T11:11:15.699Z,8.25
2022-12-20T11:12:17.343Z,8.20
2022-12-20T11:13:24.250Z,8.00
2022-12-20T11:14:25.948Z,8.75
2022-12-20T11:15:34.474Z,7.90
2022-12-20T11:16:39.602Z,8.63
2022-12-20T11:17:44.871Z,8.60
2022-12-20T11:18:56.038Z,8.52
2022-12-20T11:20:21.982Z,9.10
2022-12-20T11:21:34.134Z,8.95
2022-12-20T11:22:47.797Z,8.60
2022-12-20T11:23:56.705Z,8.57
2022-12-20T11:25:12.081Z,8.80
2022-12-20T11:26:31.646Z,9.20
2022-12-20T11:27:40.714Z,9.07
2022-12-20T11:28:55.032Z,8.57
2022-12-20T11:30:17.610Z,8.50
2022-12-20T11:31:25.107Z,7.95
2022-12-20T11:32:41.824Z,8.07
2022-12-20T11:34:03.476Z,7.68
2022-12-20T11:35:14.415Z,7.60
2022-12-20T11:36:25.194Z,7.20
2022-12-20T11:37:29.953Z,7.72
2022-12-20T11:38:40.414Z,7.25
2022-12-20T11:39:54.186Z,6.93
2022-12-20T11:41:10.064Z,6.70
2022-12-20T11:42:18.017Z,6.43
2022-12-20T11:43:31.080Z,7.20
2022-12-20T11:44:53.959Z,6.53
2022-12-20T11:46:16.276Z,7.25
2022-12-20T11:47:39.547Z,6.93
2022-12-20T11:49:03.970Z,6.85
2022-12-20T11:50:19.614Z,6.75
2022-12-20T11:51:26.656Z,6.82
2022-12-20T11:52:36.860Z,6.38
2022-12-20T11:53:43.338Z,5.93
2022-12-20T11:54:48.362Z,5.82
2022-12-20T11:55:53.395Z,6.05
2022-12-20T11:56:59.788Z,5.55
2022-12-20T11:58:18.455Z,5.65
2022-12-20T11:59:31.599Z,6.38
2022-12-20T12:00:35.789Z,6.15
2022-12-20T12:01:43.709Z,5.88
2022-12-20T12:02:57.966Z,6.57
2022-12-20T12:04:09.431Z,5.53
2022-12-20T12:05:20.744Z,4.95
2022-12-20T12:06:26.937Z,5.90
2022-12-20T12:07:31.170Z,5.68
2022-12-20T12:08:41.268Z,5.63
2022-12-20T12:09:51.008Z,5.57
2022-12-20T12:10:58.052Z,5.50
2022-12-20T12:12:08.211Z,6.30
2022-12-20T12:13:15.727Z,5.53
2022-12-20T12:14:28.800Z,5.05
2022-12-20T12:15:35.800Z,5.10
2022-12-20T12:16:42.065Z,5.55
2022-12-20T12:17:48.535Z,5.60
2022-12-20T12:18:50.734Z,5.65
2022-12-20T12:19:55.651Z,6.15
2022-12-20T12:21:08.561Z,6.05
2022-12-20T12:22:16.754Z,6.05
2022-12-20T12:23:23.189Z,6.00
2022-12-20T12:24:28.833Z,6.20
2022-12-20T12:25:31.455Z,6.18
2022-12-20T12:26:34.714Z,6.57
2022-12-20T12:27:36.293Z,6.93
2022-12-20T12:28:37.883Z,7.10
2022-12-20T12:29:39.379Z,7.20
2022-12-20T12:30:45.894Z,7.13
2022-12-20T12:31:54.653Z,6.72
2022-12-20T12:33:02.296Z,7.32
2022-12-20T12:34:11.302Z,7.25
2022-12-20T12:35:40.838Z,6.97
2022-12-20T12:37:20.442Z,6.53
2022-12-20T12:39:02.552Z,7.25
2022-12-20T12:41:40.638Z,6.68
2022-12-20T12:43:18.049Z,7.53
2022-12-20T12:44:34.247Z,7.05
2022-12-20T12:45:40.559Z,7.35
2022-12-20T12:46:42.893Z,7.63
2022-12-20T12:47:49.596Z,7.80
2022-12-20T12:48:55.998Z,8.02
2022-12-20T12:49:57.861Z,7.82
2022-12-20T12:51:00.518Z,8.32
2022-12-20T12:52:05.301Z,7.93
2022-12-20T12:53:12.580Z,7.82
2022-12-20T12:54:21.753Z,7.90
2022-12-20T12:55:39.132Z,8.77
2022-12-20T12:56:45.189Z,8.73
2022-12-20T12:57:55.735Z,8.05
2022-12-20T12:59:21.376Z,8.63
2022-12-20T13:00:52.291Z,8.88
2022-12-20T13:01:56.280Z,9.30
2022-12-20T13:02:57.997Z,8.95
2022-12-20T13:04:33.685Z,8.82
2022-12-20T13:05:36.090Z,8.90
2022-12-20T13:07:01.156Z,8.18
2022-12-20T13:08:14.642Z,7.88
2022-12-20T13:09:20.976Z,8.50
2022-12-20T13:10:55.834Z,8.40
2022-12-20T13:12:02.380Z,8.10
2022-12-20T13:13:13.857Z,8.45
2022-12-20T13:14:49.469Z,8.38
2022-12-20T13:16:12.945Z,7.43
2022-12-20T13:17:48.457Z,8.02
2022-12-20T13:19:11.407Z,7.10
2022-12-20T13:20:19.110Z,7.03
2022-12-20T13:21:32.503Z,7.63
2022-12-20T13:22:34.265Z,7.50
2022-12-20T13:23:37.099Z,8.15
2022-12-20T13:24:50.554Z,7.38
2022-12-20T13:25:52.609Z,7.32
2022-12-20T13:26:55.511Z,7.20
2022-12-20T13:28:43.496Z,7.70
2022-12-20T13:30:21.970Z,7.28
2022-12-20T13:31:32.324Z,7.70
2022-12-20T13:32:56.261Z,8.10
2022-12-20T13:34:00.707Z,7.93
2022-12-20T13:35:02.292Z,8.63
2022-12-20T13:36:35.616Z,8.20
2022-12-20T13:37:55.158Z,8.00
2022-12-20T13:38:59.455Z,7.53
2022-12-20T13:40:01.097Z,8.02
2022-12-20T13:41:12.352Z,8.48
2022-12-20T13:42:23.011Z,8.15
2022-12-20T13:43:28.675Z,8.55
2022-12-20T13:44:39.676Z,7.53
2022-12-20T13:45:45.851Z,7.68
2022-12-20T13:46:53.634Z,8.45
2022-12-20T13:48:07.722Z,7.60
2022-12-20T13:49:37.053Z,8.02
2022-12-20T13:50:40.978Z,7.10
2022-12-20T13:51:42.475Z,7.45
2022-12-20T13:52:45.021Z,7.07
2022-12-20T13:53:52.983Z,7.88
2022-12-20T13:54:57.188Z,7.63
2022-12-20T13:55:58.705Z,8.10
2022-12-20T13:57:00.275Z,8.00
2022-12-20T13:58:10.037Z,8.13
2022-12-20T13:59:19.329Z,8.70
2022-12-20T14:00:24.764Z,8.43
2022-12-20T14:01:26.945Z,7.88
2022-12-20T14:02:34.420Z,8.35
2022-12-20T14:03:41.893Z,7.75
2022-12-20T14:04:51.759Z,7.40
2022-12-20T14:05:58.456Z,7.10
2022-12-20T14:07:02.022Z,7.53
2022-12-20T14:08:05.960Z,7.53
2022-12-20T14:09:28.012Z,7.50
2022-12-20T14:10:32.558Z,6.93
2022-12-20T14:11:46.124Z,8.13
2022-12-20T14:12:51.434Z,7.15
2022-12-20T14:13:55.179Z,7.10
2022-12-20T14:14:57.056Z,6.78
2022-12-20T14:16:07.756Z,7.20